Time;durP1;ratioP1;P1;durP2;ratioP2;P2;SDS_P1;SDS_P2;PMS_P1;PMS_P2;Temp;Humidity;BMP_temperature;BMP_pressure;BME280_temperature;BME280_humidity;BME280_pressure;Samples;Min_cycle;Max_cycle;Signal;HPM_P1;HPM_P2
2023/07/06 00:00:19;;;;;;;;;;;;;;;23.23;43.99;100979.72;4990809;28;3921;-69
2023/07/06 00:02:46;;;;;;;;;;;;;;;23.12;44.22;100981.47;4991457;28;4203;-69
2023/07/06 00:05:12;;;;;;;;;;;;;;;23.11;44.07;100985.03;4987051;28;3909;-69
2023/07/06 00:07:39;;;;;;;;;;;;;;;23.08;44.35;100986.38;4990629;28;4046;-69
2023/07/06 00:10:05;;;;;;;;;;;;;;;23.12;44.26;100986.53;4989424;28;4326;-69
2023/07/06 00:12:32;;;;;;;;;;;;;;;23.07;44.27;100984.91;4989757;28;4216;-69
2023/07/06 00:14:58;;;;;;;;;;;;;;;23.08;44.06;100984.22;4989836;28;4174;-68
2023/07/06 00:17:24;;;;;;;;;;;;;;;23.06;44.47;100987.03;4985706;28;4994;-68
2023/07/06 00:19:51;;;;;;;;;;;;;;;23.09;43.91;100987.84;4984843;28;4002;-69
2023/07/06 00:22:18;;;;;;;;;;;;;;;23.09;43.93;100987.84;4989235;28;4077;-68
2023/07/06 00:24:46;;;;;;;;;;;;;;;23.02;44.35;100995.56;4989443;28;3937;-69
2023/07/06 00:27:16;;;;;;;;;;;;;;;22.99;44.28;100986.06;4987526;28;4088;-68
2023/07/06 00:29:56;;;;;;;;;;;;;;;23.02;44.01;100994.78;5003602;28;4140;-69
2023/07/06 00:32:27;;;;;;;;;;;;;;;22.99;44.32;101003.38;4992124;28;5182;-70
2023/07/06 00:34:55;;;;;;;;;;;;;;;23.02;44.12;100994.78;4988717;28;4051;-68
2023/07/06 00:37:21;;;;;;;;;;;;;;;23.03;44.29;101002.06;4985988;28;4054;-69
2023/07/06 00:39:48;;;;;;;;;;;;;;;23.02;44.26;101006.34;4991397;28;4462;-69
2023/07/06 00:42:15;;;;;;;;;;;;;;;23.08;43.91;101009.47;5004113;28;4107;-70
2023/07/06 00:44:51;;;;;;;;;;;;;;;23.02;44.03;101006.34;5005098;28;4072;-70
2023/07/06 00:47:20;;;;;;;;;;;;;;;22.97;43.99;101011.19;4986524;28;4255;-70
2023/07/06 00:49:46;;;;;;;;;;;;;;;23.00;44.18;101004.88;4994860;28;3975;-70
2023/07/06 00:52:13;;;;;;;;;;;;;;;23.03;43.96;101013.63;4989073;28;4116;-70
2023/07/06 00:54:42;;;;;;;;;;;;;;;23.05;43.71;101022.38;4993923;28;4116;-70
2023/07/06 00:57:08;;;;;;;;;;;;;;;23.07;43.40;101016.66;4986270;28;4014;-68
2023/07/06 00:59:35;;;;;;;;;;;;;;;23.03;43.71;101020.13;4987684;28;4330;-71
2023/07/06 01:02:02;;;;;;;;;;;;;;;22.97;43.82;101011.94;5002402;28;4047;-69
2023/07/06 01:04:30;;;;;;;;;;;;;;;23.02;43.48;101009.25;4984567;28;4047;-69
2023/07/06 01:06:56;;;;;;;;;;;;;;;23.03;43.28;101013.63;4986024;28;4241;-69
2023/07/06 01:09:24;;;;;;;;;;;;;;;23.03;43.64;101025.19;5005181;28;4055;-69
2023/07/06 01:11:51;;;;;;;;;;;;;;;22.98;43.38;101013.44;4988495;28;4058;-69
2023/07/06 01:14:17;;;;;;;;;;;;;;;22.96;43.55;101016.25;4985869;28;4153;-69
2023/07/06 01:16:59;;;;;;;;;;;;;;;23.00;43.19;101016.44;5004388;28;4505;-69
2023/07/06 01:19:43;;;;;;;;;;;;;;;22.95;43.60;101016.91;5002334;28;4487;-69
2023/07/06 01:22:25;;;;;;;;;;;;;;;22.94;43.32;101019.06;4985648;28;4090;-69
2023/07/06 01:25:07;;;;;;;;;;;;;;;22.95;43.16;101026.31;5004769;28;4036;-70
2023/07/06 01:27:55;;;;;;;;;;;;;;;22.90;43.19;101024.66;4981537;28;5436;-69
2023/07/06 01:30:33;;;;;;;;;;;;;;;22.91;43.36;101023.28;4981610;28;4329;-70
2023/07/06 01:33:03;;;;;;;;;;;;;;;22.89;43.18;101017.41;5000488;28;4338;-70
2023/07/06 01:35:34;;;;;;;;;;;;;;;22.89;43.18;101017.41;4985006;28;5076;-69
2023/07/06 01:38:01;;;;;;;;;;;;;;;22.88;43.24;101015.91;5001289;28;4447;-69
2023/07/06 01:40:27;;;;;;;;;;;;;;;22.92;43.13;101026.91;4983467;28;4222;-69
2023/07/06 01:42:53;;;;;;;;;;;;;;;22.87;43.28;101031.78;4989336;28;4107;-69
2023/07/06 01:45:20;;;;;;;;;;;;;;;22.88;43.19;101026.72;4985014;28;4155;-69
2023/07/06 01:47:47;;;;;;;;;;;;;;;22.88;43.27;101027.47;4984786;28;4207;-69
2023/07/06 01:50:14;;;;;;;;;;;;;;;22.86;43.21;101027.41;4985707;28;4055;-69
2023/07/06 01:52:46;;;;;;;;;;;;;;;22.88;43.71;101020.97;4982205;28;4228;-70
2023/07/06 01:55:20;;;;;;;;;;;;;;;22.85;43.41;101014.38;4982263;28;4164;-69
2023/07/06 01:58:07;;;;;;;;;;;;;;;22.85;43.61;101028.81;4987356;28;4045;-69
2023/07/06 02:00:35;;;;;;;;;;;;;;;22.86;43.58;101023.78;4982970;28;5359;-69
2023/07/06 02:03:01;;;;;;;;;;;;;;;22.89;43.65;101040.53;4984413;28;3987;-70
2023/07/06 02:05:28;;;;;;;;;;;;;;;22.84;43.83;101038.88;5005169;28;4340;-70
2023/07/06 02:07:54;;;;;;;;;;;;;;;22.83;43.97;101042.44;4992951;28;4135;-69
2023/07/06 02:10:22;;;;;;;;;;;;;;;22.77;43.94;101037.16;4995968;28;4189;-69
2023/07/06 02:12:49;;;;;;;;;;;;;;;22.75;44.15;101042.84;4989115;28;4132;-68
2023/07/06 02:15:19;;;;;;;;;;;;;;;22.77;44.13;101037.91;5002058;28;4392;-69
2023/07/06 02:17:45;;;;;;;;;;;;;;;22.77;44.17;101040.06;4990005;28;4043;-69
2023/07/06 02:20:15;;;;;;;;;;;;;;;22.75;44.36;101042.84;4992730;28;4328;-69
2023/07/06 02:22:44;;;;;;;;;;;;;;;22.79;44.11;101048.78;5008289;28;3930;-70
2023/07/06 02:25:11;;;;;;;;;;;;;;;22.74;44.40;101052.91;5004457;28;4192;-69
2023/07/06 02:27:37;;;;;;;;;;;;;;;22.72;44.38;101056.47;4992526;28;4274;-69
2023/07/06 02:30:05;;;;;;;;;;;;;;;22.72;44.66;101052.81;4990381;28;4103;-70
2023/07/06 02:32:32;;;;;;;;;;;;;;;22.73;44.43;101062.97;4992554;28;4088;-70
2023/07/06 02:34:58;;;;;;;;;;;;;;;22.78;44.43;101061.72;4989749;28;4196;-69
2023/07/06 02:37:25;;;;;;;;;;;;;;;22.77;44.61;101063.16;4989484;28;4205;-70
2023/07/06 02:39:51;;;;;;;;;;;;;;;22.74;44.52;101058.69;4990281;28;4487;-69
2023/07/06 02:42:18;;;;;;;;;;;;;;;22.72;44.58;101067.25;4988019;28;4225;-69
2023/07/06 02:44:44;;;;;;;;;;;;;;;22.74;44.89;101067.34;4991249;28;4139;-69
2023/07/06 02:47:10;;;;;;;;;;;;;;;22.76;44.45;101073.19;4996078;28;4208;-69
2023/07/06 02:49:37;;;;;;;;;;;;;;;22.73;44.70;101068.75;4991135;28;4112;-69
2023/07/06 02:52:04;;;;;;;;;;;;;;;22.74;44.81;101064.44;4990051;28;3953;-69
2023/07/06 02:54:32;;;;;;;;;;;;;;;22.73;44.70;101057.22;4990414;28;4098;-69
2023/07/06 02:57:00;;;;;;;;;;;;;;;22.75;44.50;101065.94;5003251;28;4261;-69
2023/07/06 02:59:29;;;;;;;;;;;;;;;22.76;44.60;101068.16;4987977;28;4128;-69
2023/07/06 03:01:57;;;;;;;;;;;;;;;22.72;44.59;101061.47;4988067;28;4127;-70
2023/07/06 03:04:25;;;;;;;;;;;;;;;22.74;44.53;101067.34;4986845;28;4426;-69
2023/07/06 03:06:51;;;;;;;;;;;;;;;22.70;44.80;101065.06;4992951;28;4040;-70
2023/07/06 03:09:17;;;;;;;;;;;;;;;22.72;44.70;101067.25;4984367;28;4390;-69
2023/07/06 03:11:44;;;;;;;;;;;;;;;22.72;44.62;101078.81;5003728;28;4026;-69
2023/07/06 03:14:11;;;;;;;;;;;;;;;22.71;44.86;101060.00;4990371;28;4259;-68
2023/07/06 03:16:40;;;;;;;;;;;;;;;22.74;44.69;101067.34;5003927;28;4200;-69
2023/07/06 03:19:10;;;;;;;;;;;;;;;22.70;44.57;101058.50;5000152;28;4008;-69
2023/07/06 03:21:38;;;;;;;;;;;;;;;22.66;44.92;101058.38;4988908;28;4200;-69
2023/07/06 03:24:06;;;;;;;;;;;;;;;22.68;44.80;101075.78;4988381;28;4137;-69
2023/07/06 03:26:34;;;;;;;;;;;;;;;22.69;44.91;101074.38;4984078;28;4039;-69
2023/07/06 03:29:01;;;;;;;;;;;;;;;22.64;44.90;101067.69;5001484;28;4084;-69
2023/07/06 03:31:29;;;;;;;;;;;;;;;22.63;44.86;101077.00;5004466;28;4164;-69
2023/07/06 03:33:56;;;;;;;;;;;;;;;22.65;44.88;101079.97;5007762;28;4229;-69
2023/07/06 03:36:22;;;;;;;;;;;;;;;22.66;45.30;101067.03;4989622;28;4008;-70
2023/07/06 03:38:49;;;;;;;;;;;;;;;22.64;45.04;101073.47;5005911;28;4153;-69
2023/07/06 03:41:16;;;;;;;;;;;;;;;22.66;44.88;101072.81;4989784;28;4368;-69
2023/07/06 03:43:43;;;;;;;;;;;;;;;22.64;45.16;101075.59;4990940;28;4972;-69
2023/07/06 03:46:09;;;;;;;;;;;;;;;22.64;45.30;101082.13;4988613;28;4167;-69
2023/07/06 03:48:36;;;;;;;;;;;;;;;22.60;44.92;101084.84;4990155;28;4046;-69
2023/07/06 03:51:03;;;;;;;;;;;;;;;22.62;45.09;101089.94;4987616;28;4176;-69
2023/07/06 03:53:35;;;;;;;;;;;;;;;22.61;45.16;101094.22;4993204;28;4233;-69
2023/07/06 03:56:02;;;;;;;;;;;;;;;22.64;45.43;101101.59;4988243;28;4410;-69
2023/07/06 03:58:29;;;;;;;;;;;;;;;22.61;45.33;101103.66;4986871;28;4059;-69
2023/07/06 04:00:58;;;;;;;;;;;;;;;22.61;45.28;101100.00;4989958;28;4183;-69
2023/07/06 04:03:26;;;;;;;;;;;;;;;22.59;45.36;101103.56;4988674;28;4083;-69
2023/07/06 04:05:53;;;;;;;;;;;;;;;22.58;45.91;101105.69;4985639;28;4049;-70
2023/07/06 04:08:20;;;;;;;;;;;;;;;22.58;45.81;101108.56;4990805;28;4169;-69
2023/07/06 04:10:46;;;;;;;;;;;;;;;22.56;45.90;101102.75;4992935;28;4504;-69
2023/07/06 04:13:14;;;;;;;;;;;;;;;22.58;45.89;101113.59;4986729;28;4169;-69
2023/07/06 04:15:42;;;;;;;;;;;;;;;22.56;45.92;101102.75;4986365;28;4155;-70
2023/07/06 04:18:09;;;;;;;;;;;;;;;22.56;46.02;101114.28;5000225;28;4044;-69
2023/07/06 04:20:35;;;;;;;;;;;;;;;22.53;46.15;101104.03;4988008;28;4064;-69
2023/07/06 04:23:02;;;;;;;;;;;;;;;22.55;46.19;101114.94;4990976;28;4174;-75
2023/07/06 04:25:29;;;;;;;;;;;;;;;22.59;46.65;101120.88;4987039;28;4456;-63
2023/07/06 04:27:56;;;;;;;;;;;;;;;22.57;46.68;101117.91;4989787;28;4032;-70
2023/07/06 04:30:23;;;;;;;;;;;;;;;22.54;46.58;101119.97;4987722;28;4236;-70
2023/07/06 04:32:49;;;;;;;;;;;;;;;22.57;46.49;101126.56;4985447;28;4481;-70
2023/07/06 04:35:17;;;;;;;;;;;;;;;22.58;46.46;101125.88;4985113;28;4161;-70
2023/07/06 04:37:48;;;;;;;;;;;;;;;22.58;46.79;101128.03;4989161;28;4270;-69
2023/07/06 04:40:17;;;;;;;;;;;;;;;22.70;46.48;101133.56;4982475;28;4427;-71
2023/07/06 04:42:45;;;;;;;;;;;;;;;22.82;46.64;101136.97;4984544;28;4175;-72
2023/07/06 04:45:12;;;;;;;;;;;;;;;22.54;46.24;101140.16;4983008;28;3946;-73
2023/07/06 04:47:39;;;;;;;;;;;;;;;22.34;46.46;101142.94;4982504;28;4055;-70
2023/07/06 04:50:06;;;;;;;;;;;;;;;22.29;47.00;101135.50;4991205;28;4090;-70
2023/07/06 04:52:33;;;;;;;;;;;;;;;22.42;46.71;101138.91;4987622;28;4050;-70
2023/07/06 04:54:59;;;;;;;;;;;;;;;22.48;46.83;101131.25;4986594;28;4152;-69
2023/07/06 04:57:26;;;;;;;;;;;;;;;22.53;46.78;101130.00;4986858;28;4511;-70
2023/07/06 04:59:52;;;;;;;;;;;;;;;22.52;46.94;101131.44;4987593;28;4020;-70
2023/07/06 05:02:22;;;;;;;;;;;;;;;22.58;46.81;101137.44;4985265;28;4147;-70
2023/07/06 05:04:49;;;;;;;;;;;;;;;22.56;46.94;101143.16;4985561;28;4048;-70
2023/07/06 05:07:16;;;;;;;;;;;;;;;22.61;46.93;101146.94;4984081;28;4255;-69
2023/07/06 05:09:42;;;;;;;;;;;;;;;22.58;46.87;101139.59;4988260;28;4174;-70
2023/07/06 05:12:10;;;;;;;;;;;;;;;22.57;46.94;101144.63;4982567;28;4146;-69
2023/07/06 05:14:36;;;;;;;;;;;;;;;22.65;47.07;101149.25;4991290;28;4205;-70
2023/07/06 05:17:03;;;;;;;;;;;;;;;22.63;46.92;101149.16;4986055;28;4137;-70
2023/07/06 05:19:30;;;;;;;;;;;;;;;22.65;46.92;101144.19;4982343;28;4111;-70
2023/07/06 05:21:56;;;;;;;;;;;;;;;22.67;47.18;101160.88;4983523;28;4176;-70
2023/07/06 05:24:26;;;;;;;;;;;;;;;22.67;46.98;101152.22;4989239;28;4615;-70
2023/07/06 05:26:52;;;;;;;;;;;;;;;22.66;47.11;101168.06;4984249;28;4006;-70
2023/07/06 05:29:19;;;;;;;;;;;;;;;22.68;47.05;101171.03;4986152;28;4491;-70
2023/07/06 05:31:45;;;;;;;;;;;;;;;22.69;47.11;101167.47;4987248;28;4180;-70
2023/07/06 05:34:12;;;;;;;;;;;;;;;22.69;46.99;101166.72;4986167;28;4186;-69
2023/07/06 05:36:38;;;;;;;;;;;;;;;22.70;47.03;101168.22;4988062;28;6208;-70
2023/07/06 05:39:05;;;;;;;;;;;;;;;22.68;47.05;101163.09;4983833;28;4019;-70
2023/07/06 05:41:31;;;;;;;;;;;;;;;22.70;47.06;101168.22;4988349;28;4064;-69
2023/07/06 05:43:57;;;;;;;;;;;;;;;22.77;47.01;101169.97;4988797;28;3996;-69
2023/07/06 05:46:24;;;;;;;;;;;;;;;22.81;46.99;101170.13;4986101;28;4141;-69
2023/07/06 05:48:53;;;;;;;;;;;;;;;22.73;47.26;101172.69;4985285;28;4074;-69
2023/07/06 05:51:19;;;;;;;;;;;;;;;22.75;47.30;101175.66;4986426;28;4193;-70
2023/07/06 05:53:48;;;;;;;;;;;;;;;22.81;46.86;101173.00;4988168;28;4135;-70
2023/07/06 05:56:15;;;;;;;;;;;;;;;22.89;46.75;101178.38;4984841;28;4102;-69
2023/07/06 05:58:42;;;;;;;;;;;;;;;22.87;46.69;101176.16;4992163;28;4023;-70
2023/07/06 06:01:09;;;;;;;;;;;;;;;22.84;46.80;101177.47;4992248;28;4173;-69
2023/07/06 06:03:36;;;;;;;;;;;;;;;22.77;46.83;101185.13;4989812;28;4195;-70
2023/07/06 06:06:02;;;;;;;;;;;;;;;22.85;46.49;101190.50;4991826;28;4159;-70
2023/07/06 06:08:29;;;;;;;;;;;;;;;22.96;45.76;101189.53;4992617;28;4792;-69
2023/07/06 06:10:55;;;;;;;;;;;;;;;22.89;46.15;101204.38;4990050;28;4497;-70
2023/07/06 06:13:22;;;;;;;;;;;;;;;22.90;45.85;101186.38;4984749;28;4027;-70
2023/07/06 06:15:48;;;;;;;;;;;;;;;22.85;46.13;101198.44;4991272;28;4293;-70
2023/07/06 06:18:15;;;;;;;;;;;;;;;22.89;46.07;101199.34;4988025;28;4117;-70
2023/07/06 06:20:41;;;;;;;;;;;;;;;22.86;46.21;101203.56;4990902;28;3939;-70
2023/07/06 06:23:10;;;;;;;;;;;;;;;22.80;46.08;101197.50;4988662;28;4481;-69
2023/07/06 06:25:38;;;;;;;;;;;;;;;22.86;45.89;101197.78;4990760;28;4494;-70
2023/07/06 06:28:05;;;;;;;;;;;;;;;22.93;45.83;101207.41;4989710;28;3907;-71
2023/07/06 06:30:34;;;;;;;;;;;;;;;22.84;45.85;101205.59;4987629;28;4173;-70
2023/07/06 06:33:01;;;;;;;;;;;;;;;22.92;45.57;101212.44;4988208;28;4127;-70
2023/07/06 06:35:28;;;;;;;;;;;;;;;22.98;45.50;101218.47;4988444;28;4147;-71
2023/07/06 06:37:54;;;;;;;;;;;;;;;22.86;45.80;101218.00;4987868;28;4114;-69
2023/07/06 06:40:21;;;;;;;;;;;;;;;22.78;45.94;101221.25;4985286;28;4530;-68
2023/07/06 06:42:48;;;;;;;;;;;;;;;22.87;46.12;101213.69;4990625;28;5117;-68
2023/07/06 06:45:15;;;;;;;;;;;;;;;22.86;46.27;101218.00;4993493;28;4157;-67
2023/07/06 06:47:42;;;;;;;;;;;;;;;22.85;46.00;101230.94;4986912;28;4432;-68
2023/07/06 06:50:09;;;;;;;;;;;;;;;22.83;46.03;101227.94;4989801;28;4031;-67
2023/07/06 06:52:35;;;;;;;;;;;;;;;22.79;46.53;101224.88;4988086;28;4144;-68
2023/07/06 06:55:02;;;;;;;;;;;;;;;22.81;46.61;101224.97;4988598;28;4065;-68
2023/07/06 06:57:30;;;;;;;;;;;;;;;22.81;46.37;101224.97;4991783;28;4262;-67
2023/07/06 06:59:57;;;;;;;;;;;;;;;22.83;46.33;101227.22;4987535;28;4264;-68
2023/07/06 07:02:23;;;;;;;;;;;;;;;22.83;46.60;101227.94;4989032;28;4218;-68
2023/07/06 07:04:50;;;;;;;;;;;;;;;22.79;46.52;101228.53;4992818;28;4103;-68
2023/07/06 07:07:16;;;;;;;;;;;;;;;22.82;46.54;101237.28;4990361;28;4067;-67
2023/07/06 07:09:44;;;;;;;;;;;;;;;22.83;46.52;101227.94;4989845;28;4045;-68
2023/07/06 07:12:11;;;;;;;;;;;;;;;22.83;46.64;101239.50;4988257;28;4098;-67
2023/07/06 07:14:38;;;;;;;;;;;;;;;22.85;46.58;101245.38;4988711;28;4141;-67
2023/07/06 07:17:07;;;;;;;;;;;;;;;22.84;46.24;101238.13;4986513;28;4083;-68
2023/07/06 07:19:34;;;;;;;;;;;;;;;22.84;46.23;101234.47;4991342;28;4477;-68
2023/07/06 07:22:01;;;;;;;;;;;;;;;22.81;46.59;101242.28;4985355;28;4291;-67
2023/07/06 07:24:29;;;;;;;;;;;;;;;22.78;46.17;101241.47;4986360;28;4320;-68
2023/07/06 07:26:57;;;;;;;;;;;;;;;22.79;46.00;101245.09;4985364;28;4056;-68
2023/07/06 07:29:23;;;;;;;;;;;;;;;22.82;45.82;101243.81;4986341;28;4254;-68
2023/07/06 07:31:50;;;;;;;;;;;;;;;22.84;45.62;101254.69;4986324;28;4138;-68
2023/07/06 07:34:17;;;;;;;;;;;;;;;22.64;47.17;101245.91;4987473;28;4328;-73
2023/07/06 07:36:43;;;;;;;;;;;;;;;22.37;46.31;101244.75;4984903;28;4065;-69
2023/07/06 07:39:10;;;;;;;;;;;;;;;21.99;46.69;101235.84;4984559;28;4191;-69
2023/07/06 07:41:36;;;;;;;;;;;;;;;21.84;46.56;101245.22;4987727;28;4370;-68
2023/07/06 07:44:03;;;;;;;;;;;;;;;22.03;45.98;101249.69;4985795;28;4129;-74
2023/07/06 07:46:29;;;;;;;;;;;;;;;21.91;46.11;101249.88;4990845;28;4186;-70
2023/07/06 07:48:56;;;;;;;;;;;;;;;21.91;45.71;101244.84;4986299;28;4108;-74
2023/07/06 07:51:24;;;;;;;;;;;;;;;22.05;45.54;101270.69;4987295;28;4081;-69
2023/07/06 07:53:52;;;;;;;;;;;;;;;22.02;45.81;101263.38;4987212;28;4209;-69
2023/07/06 07:56:19;;;;;;;;;;;;;;;22.15;45.59;101256.00;4986390;28;4182;-69
2023/07/06 07:58:48;;;;;;;;;;;;;;;21.81;45.00;101252.28;4983999;28;4228;-66
2023/07/06 08:01:16;;;;;;;;;;;;;;;21.81;45.45;101258.81;4987453;28;4127;-66
2023/07/06 08:03:42;;;;;;;;;;;;;;;21.64;45.58;101251.50;4991813;28;4239;-67
2023/07/06 08:06:10;;;;;;;;;;;;;;;21.82;45.46;101250.88;4984983;28;4181;-67
2023/07/06 08:08:37;;;;;;;;;;;;;;;21.58;44.75;101257.00;4986521;28;4144;-67
2023/07/06 08:11:06;;;;;;;;;;;;;;;21.69;44.70;101253.22;4985955;28;4255;-67
2023/07/06 08:13:33;;;;;;;;;;;;;;;21.88;44.75;101256.94;4985459;28;5376;-67
2023/07/06 08:16:00;;;;;;;;;;;;;;;22.11;44.98;101265.22;4983465;28;4328;-67
2023/07/06 08:18:26;;;;;;;;;;;;;;;22.33;44.96;101264.75;4987985;28;4195;-67
2023/07/06 08:20:56;;;;;;;;;;;;;;;22.20;44.71;101268.50;4986005;28;4095;-68
2023/07/06 08:23:47;;;;;;;;;;;;;;;22.27;44.83;101267.38;4984426;28;4151;-68
2023/07/06 08:26:13;;;;;;;;;;;;;;;22.10;44.37;101283.91;4984848;28;4113;-68
2023/07/06 08:28:40;;;;;;;;;;;;;;;22.11;44.27;101290.44;4987195;28;4370;-68
2023/07/06 08:31:12;;;;;;;;;;;;;;;21.46;43.64;101282.34;4985141;28;4310;-67
2023/07/06 08:33:38;;;;;;;;;;;;;;;21.69;44.15;101281.25;4988552;28;4010;-68
2023/07/06 08:36:06;;;;;;;;;;;;;;;21.99;44.35;101266.78;4987798;28;4311;-68
2023/07/06 08:38:33;;;;;;;;;;;;;;;22.00;44.55;101277.69;4987426;28;4024;-68
2023/07/06 08:40:59;;;;;;;;;;;;;;;22.13;44.38;101285.50;4988914;28;4099;-68
2023/07/06 08:43:26;;;;;;;;;;;;;;;22.23;44.10;101267.19;5003330;28;4153;-68
2023/07/06 08:45:53;;;;;;;;;;;;;;;22.13;44.37;101276.84;4991685;28;4135;-68
2023/07/06 08:48:21;;;;;;;;;;;;;;;22.31;44.24;101284.84;4986295;28;4454;-68
2023/07/06 08:50:51;;;;;;;;;;;;;;;22.18;44.19;101280.66;4994438;28;3934;-68
2023/07/06 08:53:18;;;;;;;;;;;;;;;22.13;44.46;101279.75;4987786;28;4190;-68
2023/07/06 08:55:45;;;;;;;;;;;;;;;22.31;44.19;101284.84;4991771;28;4191;-68
2023/07/06 08:58:12;;;;;;;;;;;;;;;22.36;44.38;101293.06;4988726;28;4138;-68
2023/07/06 09:00:39;;;;;;;;;;;;;;;22.01;44.43;101287.81;5002094;28;4251;-67
2023/07/06 09:03:05;;;;;;;;;;;;;;;21.86;44.45;101285.69;4989553;28;4153;-67
2023/07/06 09:05:33;;;;;;;;;;;;;;;22.05;44.58;101293.78;5003062;28;5062;-68
2023/07/06 09:08:00;;;;;;;;;;;;;;;22.23;44.49;101296.03;4987632;28;4415;-68
2023/07/06 09:10:28;;;;;;;;;;;;;;;22.36;44.54;101298.09;4985838;28;4395;-68
2023/07/06 09:12:56;;;;;;;;;;;;;;;22.30;44.16;101286.28;4983608;28;4092;-68
2023/07/06 09:15:26;;;;;;;;;;;;;;;21.92;44.81;101292.47;4990792;28;4163;-68
2023/07/06 09:17:54;;;;;;;;;;;;;;;22.12;44.88;101292.66;4984774;28;4045;-68
2023/07/06 09:20:21;;;;;;;;;;;;;;;22.18;44.90;101289.31;4995618;28;4111;-68
2023/07/06 09:22:48;;;;;;;;;;;;;;;22.27;44.46;101284.69;4990201;28;4441;-68
2023/07/06 09:25:17;;;;;;;;;;;;;;;22.35;44.23;101280.00;4986347;28;4151;-68
2023/07/06 09:27:44;;;;;;;;;;;;;;;22.27;44.17;101281.81;4990271;28;4402;-68
2023/07/06 09:30:17;;;;;;;;;;;;;;;22.27;44.56;101273.91;4984366;28;4074;-68
2023/07/06 09:32:44;;;;;;;;;;;;;;;22.32;44.16;101280.59;4994085;28;4223;-68
2023/07/06 09:35:12;;;;;;;;;;;;;;;22.32;43.90;101269.78;4987132;28;4408;-68
2023/07/06 09:37:47;;;;;;;;;;;;;;;22.29;44.22;101265.34;4996331;28;4148;-68
2023/07/06 09:40:14;;;;;;;;;;;;;;;22.21;43.94;101281.50;4982967;28;4132;-67
2023/07/06 09:42:44;;;;;;;;;;;;;;;22.44;44.42;101278.25;4984908;28;4521;-67
2023/07/06 09:45:22;;;;;;;;;;;;;;;22.42;44.10;101278.16;4983816;28;4106;-67
2023/07/06 09:47:50;;;;;;;;;;;;;;;22.45;44.05;101285.50;4983044;28;4108;-66
2023/07/06 09:50:20;;;;;;;;;;;;;;;22.52;43.93;101280.75;5001574;28;4148;-67
2023/07/06 09:52:46;;;;;;;;;;;;;;;22.52;43.82;101278.63;4986019;28;4062;-67
2023/07/06 09:55:13;;;;;;;;;;;;;;;22.58;43.96;101289.66;4985255;28;4205;-67
2023/07/06 09:57:40;;;;;;;;;;;;;;;22.59;43.93;101286.13;4985597;28;4332;-67
2023/07/06 10:00:12;;;;;;;;;;;;;;;22.57;43.93;101286.03;4985351;28;4336;-66
2023/07/06 10:02:45;;;;;;;;;;;;;;;22.58;44.03;101289.66;4981549;28;4061;-67
2023/07/06 10:05:21;;;;;;;;;;;;;;;22.55;43.88;101283.06;4989872;28;4908;-66
2023/07/06 10:07:52;;;;;;;;;;;;;;;22.53;44.11;101294.50;4983620;28;4121;-67
2023/07/06 10:10:37;;;;;;;;;;;;;;;22.56;43.76;101284.56;4982134;28;4100;-67
2023/07/06 10:13:06;;;;;;;;;;;;;;;22.55;44.30;101285.94;4985262;28;4039;-67
2023/07/06 10:15:41;;;;;;;;;;;;;;;22.61;44.28;101288.38;4993429;28;4836;-67
2023/07/06 10:18:07;;;;;;;;;;;;;;;22.62;43.93;101283.34;4981269;28;4259;-67
2023/07/06 10:20:36;;;;;;;;;;;;;;;22.67;44.04;101285.00;4983325;28;5113;-67
2023/07/06 10:23:24;;;;;;;;;;;;;;;22.72;44.27;101290.31;4986556;28;4146;-66
2023/07/06 10:26:03;;;;;;;;;;;;;;;22.70;44.57;101280.78;4988300;28;4153;-67
2023/07/06 10:28:33;;;;;;;;;;;;;;;22.74;44.39;101278.09;4986514;28;4070;-65
2023/07/06 10:30:59;;;;;;;;;;;;;;;22.76;44.70;101275.28;4987813;28;4085;-64
2023/07/06 10:33:33;;;;;;;;;;;;;;;22.80;44.34;101287.03;4985787;28;4090;-64
2023/07/06 10:36:00;;;;;;;;;;;;;;;22.76;44.50;101289.72;4985847;28;4000;-64
2023/07/06 10:38:27;;;;;;;;;;;;;;;22.79;44.51;101285.53;4985090;28;3984;-65
2023/07/06 10:41:14;;;;;;;;;;;;;;;22.78;44.90;101284.03;4989746;28;4088;-64
2023/07/06 10:43:40;;;;;;;;;;;;;;;22.85;44.58;101293.72;4979461;28;4095;-64
2023/07/06 10:46:26;;;;;;;;;;;;;;;22.85;44.60;101291.56;4986760;28;4062;-63
2023/07/06 10:48:57;;;;;;;;;;;;;;;22.81;44.81;101294.28;4991430;28;4178;-64
2023/07/06 10:51:24;;;;;;;;;;;;;;;22.82;44.93;101307.31;4992802;28;4178;-64
2023/07/06 10:54:02;;;;;;;;;;;;;;;22.84;44.86;101297.97;4993017;28;4215;-64
2023/07/06 10:56:32;;;;;;;;;;;;;;;22.88;45.02;101298.91;4991833;28;4118;-64
2023/07/06 10:58:59;;;;;;;;;;;;;;;22.88;45.12;101293.13;4990474;28;4372;-64
2023/07/06 11:01:29;;;;;;;;;;;;;;;23.03;45.25;101296.66;4988816;28;3996;-65
2023/07/06 11:03:56;;;;;;;;;;;;;;;23.21;45.35;101301.06;4989352;28;4033;-64
2023/07/06 11:06:38;;;;;;;;;;;;;;;23.33;45.47;101297.19;4990720;28;4953;-68
2023/07/06 11:09:08;;;;;;;;;;;;;;;23.19;45.49;101300.97;4992687;28;4011;-69
2023/07/06 11:11:38;;;;;;;;;;;;;;;23.08;45.49;101307.00;4995391;28;4156;-68
2023/07/06 11:14:24;;;;;;;;;;;;;;;23.07;45.40;101306.25;5008168;28;4116;-67
2023/07/06 11:16:55;;;;;;;;;;;;;;;23.07;45.32;101314.19;4994577;28;4143;-70
2023/07/06 11:19:30;;;;;;;;;;;;;;;23.05;45.53;101316.97;4999628;28;4127;-69
2023/07/06 11:21:58;;;;;;;;;;;;;;;23.07;45.59;101319.97;5003730;28;4135;-69
2023/07/06 11:24:26;;;;;;;;;;;;;;;23.05;45.32;101316.97;4989695;28;4339;-67
2023/07/06 11:26:52;;;;;;;;;;;;;;;23.10;45.39;101321.53;4988442;28;4100;-64
2023/07/06 11:29:19;;;;;;;;;;;;;;;23.14;45.09;101324.59;4989100;28;4459;-63
2023/07/06 11:31:48;;;;;;;;;;;;;;;23.13;45.16;101325.97;4990539;28;4018;-64
2023/07/06 11:34:26;;;;;;;;;;;;;;;23.10;45.21;101321.53;4983820;28;4408;-63
2023/07/06 11:36:55;;;;;;;;;;;;;;;23.07;45.55;101328.63;5005165;28;4538;-64
2023/07/06 11:39:42;;;;;;;;;;;;;;;23.06;45.23;101327.84;4987173;28;4591;-64
2023/07/06 11:42:17;;;;;;;;;;;;;;;23.03;45.42;101331.34;4985281;28;4273;-63
2023/07/06 11:44:46;;;;;;;;;;;;;;;23.08;45.59;101330.09;4989058;28;4164;-65
2023/07/06 11:47:15;;;;;;;;;;;;;;;23.07;45.28;101317.81;4985008;28;4120;-71
2023/07/06 11:49:49;;;;;;;;;;;;;;;23.12;45.55;101327.38;4986705;28;4072;-71
2023/07/06 11:52:19;;;;;;;;;;;;;;;23.05;45.52;101328.53;5003740;28;4298;-71
2023/07/06 11:56:05;;;;;;;;;;;;;;;23.03;45.28;101319.78;4986507;28;4141;-71
2023/07/06 11:58:04;;;;;;;;;;;;;;;23.00;45.01;101322.56;4973537;28;4085;-71
2023/07/06 12:03:00;;;;;;;;;;;;;;;23.10;44.87;101330.19;4965785;28;4345;-71
2023/07/06 12:05:39;;;;;;;;;;;;;;;23.12;45.02;101310.78;4969921;28;4120;-70
2023/07/06 12:08:14;;;;;;;;;;;;;;;23.14;44.99;101313.03;4966741;28;4047;-69
2023/07/06 12:10:45;;;;;;;;;;;;;;;23.14;45.20;101313.03;4969843;28;3894;-70
2023/07/06 12:13:17;;;;;;;;;;;;;;;23.17;45.20;101315.34;5002608;28;4250;-70
2023/07/06 12:15:47;;;;;;;;;;;;;;;23.18;44.89;101319.72;5001758;28;3926;-69
2023/07/06 12:18:13;;;;;;;;;;;;;;;23.20;45.11;101313.28;4992423;28;4051;-71
2023/07/06 12:20:40;;;;;;;;;;;;;;;23.17;45.26;101311.69;5006483;28;4399;-66
2023/07/06 12:23:09;;;;;;;;;;;;;;;23.18;45.00;101319.72;4986638;28;4043;-62
2023/07/06 12:25:35;;;;;;;;;;;;;;;23.20;45.18;101319.03;5003811;28;4048;-64
2023/07/06 12:28:02;;;;;;;;;;;;;;;23.15;45.00;101314.50;4986588;28;3997;-64
2023/07/06 12:30:29;;;;;;;;;;;;;;;23.21;45.17;101317.66;4991264;28;4396;-70
2023/07/06 12:32:55;;;;;;;;;;;;;;;23.24;45.01;101313.44;4983793;28;4106;-68
2023/07/06 12:35:22;;;;;;;;;;;;;;;23.25;45.06;101317.84;5002593;28;4079;-68
2023/07/06 12:37:48;;;;;;;;;;;;;;;23.17;45.34;101317.47;4985681;28;4023;-68
2023/07/06 12:40:18;;;;;;;;;;;;;;;23.23;45.14;101314.84;5001784;28;4170;-69
2023/07/06 12:42:45;;;;;;;;;;;;;;;23.23;44.71;101317.75;4988904;28;3966;-68
2023/07/06 12:45:14;;;;;;;;;;;;;;;23.23;44.89;101308.31;4991950;28;5192;-68
2023/07/06 12:47:40;;;;;;;;;;;;;;;23.22;45.08;101316.25;5000325;28;4385;-69
2023/07/06 12:50:14;;;;;;;;;;;;;;;23.23;44.96;101314.09;4986019;28;4217;-68
2023/07/06 12:52:42;;;;;;;;;;;;;;;23.24;44.97;101319.22;4985509;28;4330;-68
2023/07/06 12:55:12;;;;;;;;;;;;;;;23.23;44.99;101317.75;4990459;28;4066;-71
2023/07/06 12:57:38;;;;;;;;;;;;;;;23.25;45.08;101317.06;4998417;28;4022;-71